createdAt,value
2022-12-19T00:00:51.061Z,0
2022-12-19T00:01:51.700Z,0
2022-12-19T00:02:52.351Z,0
2022-12-19T00:03:52.656Z,0
2022-12-19T00:04:53.171Z,0
2022-12-19T00:05:53.776Z,0
2022-12-19T00:06:54.332Z,0
2022-12-19T00:07:55.675Z,0
2022-12-19T00:08:57.057Z,0
2022-12-19T00:09:57.941Z,0
2022-12-19T00:10:58.535Z,0
2022-12-19T00:11:59.803Z,0
2022-12-19T00:13:31.215Z,0
2022-12-19T00:14:31.124Z,0
2022-12-19T00:15:31.619Z,0
2022-12-19T00:16:32.180Z,0
2022-12-19T00:17:32.712Z,0
2022-12-19T00:18:34.062Z,0
2022-12-19T00:19:34.597Z,0
2022-12-19T00:20:35.105Z,0
2022-12-19T00:21:35.736Z,0
2022-12-19T00:22:37.309Z,0
2022-12-19T00:23:37.949Z,0
2022-12-19T00:24:38.373Z,0
2022-12-19T00:25:39.660Z,0
2022-12-19T00:26:39.398Z,0
2022-12-19T00:27:40.141Z,0
2022-12-19T00:28:41.626Z,0
2022-12-19T00:29:42.236Z,0
2022-12-19T00:30:42.715Z,0
2022-12-19T00:31:43.369Z,0
2022-12-19T00:32:43.784Z,0
2022-12-19T00:33:44.346Z,0
2022-12-19T00:34:45.002Z,0
2022-12-19T00:35:45.529Z,0
2022-12-19T00:36:46.143Z,0
2022-12-19T00:37:49.191Z,0
2022-12-19T00:38:48.127Z,0
2022-12-19T00:39:48.782Z,0
2022-12-19T00:40:49.334Z,0
2022-12-19T00:41:49.863Z,0
2022-12-19T00:42:53.527Z,0
2022-12-19T00:43:50.953Z,0
2022-12-19T00:44:51.561Z,0
2022-12-19T00:45:52.886Z,0
2022-12-19T00:46:53.489Z,0
2022-12-19T00:47:54.782Z,0
2022-12-19T00:48:55.291Z,0
2022-12-19T00:49:55.979Z,0
2022-12-19T00:50:56.519Z,0
2022-12-19T00:51:57.175Z,0
2022-12-19T00:52:57.894Z,0
2022-12-19T00:53:58.482Z,0
2022-12-19T00:54:59.494Z,0
2022-12-19T00:56:30.398Z,0
2022-12-19T00:57:31.103Z,0
2022-12-19T00:58:35.445Z,0
2022-12-19T00:59:33.230Z,0
2022-12-19T01:00:33.784Z,0
2022-12-19T01:01:34.577Z,0
2022-12-19T01:02:35.195Z,0
2022-12-19T01:03:36.604Z,0
2022-12-19T01:04:41.518Z,0
2022-12-19T01:05:37.721Z,0
2022-12-19T01:06:38.268Z,0
2022-12-19T01:07:38.923Z,0
2022-12-19T01:08:40.081Z,0
2022-12-19T01:09:40.793Z,0
2022-12-19T01:10:41.322Z,0
2022-12-19T01:11:41.958Z,0
2022-12-19T01:12:43.220Z,0
2022-12-19T01:13:43.754Z,0
2022-12-19T01:14:44.427Z,0
2022-12-19T01:15:44.939Z,0
2022-12-19T01:16:45.448Z,0
2022-12-19T01:17:46.024Z,0
2022-12-19T01:18:47.153Z,0
2022-12-19T01:19:47.832Z,0
2022-12-19T01:20:48.388Z,0
2022-12-19T01:21:48.917Z,0
2022-12-19T01:22:49.491Z,0
2022-12-19T01:23:49.998Z,0
2022-12-19T01:24:50.613Z,0
2022-12-19T01:25:51.162Z,0
2022-12-19T01:26:51.866Z,0
2022-12-19T01:27:52.492Z,0
2022-12-19T01:28:53.622Z,0
2022-12-19T01:29:54.229Z,0
2022-12-19T01:30:54.798Z,0
2022-12-19T01:31:55.538Z,0
2022-12-19T01:32:55.998Z,0
2022-12-19T01:33:56.581Z,0
2022-12-19T01:34:57.110Z,0
2022-12-19T01:35:58.769Z,0
2022-12-19T01:37:29.836Z,0
2022-12-19T01:38:31.320Z,0
2022-12-19T01:39:31.962Z,0
2022-12-19T01:40:32.468Z,0
2022-12-19T01:41:33.035Z,0
2022-12-19T01:42:33.692Z,0
2022-12-19T01:43:34.245Z,0
2022-12-19T01:44:34.944Z,0
2022-12-19T01:45:37.469Z,0
2022-12-19T01:46:36.120Z,0
2022-12-19T01:47:37.653Z,0
2022-12-19T01:48:38.325Z,0
2022-12-19T01:49:38.932Z,0
2022-12-19T01:50:41.427Z,0
2022-12-19T01:51:40.647Z,0
2022-12-19T01:52:41.168Z,0
2022-12-19T01:53:48.406Z,0
2022-12-19T01:54:42.557Z,0
2022-12-19T01:55:43.141Z,0
2022-12-19T01:56:43.614Z,0
2022-12-19T01:57:44.143Z,0
2022-12-19T01:58:45.760Z,0
2022-12-19T01:59:46.351Z,0
2022-12-19T02:00:47.123Z,0
2022-12-19T02:01:51.849Z,0
2022-12-19T02:02:48.314Z,0
2022-12-19T02:03:48.690Z,0
2022-12-19T02:04:49.818Z,0
2022-12-19T02:05:50.452Z,0
2022-12-19T02:06:50.986Z,0
2022-12-19T02:07:51.576Z,0
2022-12-19T02:08:53.019Z,0
2022-12-19T02:09:57.288Z,0
2022-12-19T02:10:55.015Z,0
2022-12-19T02:11:55.530Z,0
2022-12-19T02:12:56.183Z,0
2022-12-19T02:13:56.697Z,0
2022-12-19T02:15:00.536Z,0
2022-12-19T02:16:29.014Z,0
2022-12-19T02:17:30.049Z,0
2022-12-19T02:18:31.330Z,0
2022-12-19T02:19:31.842Z,0
2022-12-19T02:20:32.437Z,0
2022-12-19T02:21:33.025Z,0
2022-12-19T02:22:33.604Z,0
2022-12-19T02:23:34.227Z,0
2022-12-19T02:24:34.829Z,0
2022-12-19T02:25:35.280Z,0
2022-12-19T02:26:35.920Z,0
2022-12-19T02:27:40.145Z,0
2022-12-19T02:28:37.884Z,0
2022-12-19T02:29:38.489Z,0
2022-12-19T02:30:38.996Z,0
2022-12-19T02:31:39.559Z,0
2022-12-19T02:32:40.017Z,0
2022-12-19T02:33:40.709Z,0
2022-12-19T02:34:44.369Z,0
2022-12-19T02:35:41.831Z,0
2022-12-19T02:36:44.423Z,0
2022-12-19T02:37:43.695Z,0
2022-12-19T02:38:44.855Z,0
2022-12-19T02:39:45.481Z,0
2022-12-19T02:40:46.008Z,0
2022-12-19T02:41:46.682Z,0
2022-12-19T02:42:47.156Z,0
2022-12-19T02:43:49.052Z,0
2022-12-19T02:44:48.307Z,0
2022-12-19T02:45:48.996Z,0
2022-12-19T02:46:49.557Z,0
2022-12-19T02:47:50.055Z,0
2022-12-19T02:48:51.331Z,0
2022-12-19T02:49:52.025Z,0
2022-12-19T02:50:52.378Z,0
2022-12-19T02:51:53.091Z,0
2022-12-19T02:52:53.651Z,0
2022-12-19T02:53:54.185Z,0
2022-12-19T02:54:54.747Z,0
2022-12-19T02:55:55.266Z,0
2022-12-19T02:56:56.734Z,0
2022-12-19T02:57:57.524Z,0
2022-12-19T02:59:29.160Z,0
2022-12-19T03:00:29.636Z,0
2022-12-19T03:01:30.314Z,0
2022-12-19T03:02:30.874Z,0
2022-12-19T03:03:31.285Z,0
2022-12-19T03:04:31.911Z,0
2022-12-19T03:05:32.468Z,0
2022-12-19T03:06:33.034Z,0
2022-12-19T03:07:33.611Z,0
2022-12-19T03:08:35.122Z,0
2022-12-19T03:09:36.724Z,0
2022-12-19T03:10:37.273Z,0
2022-12-19T03:11:37.850Z,0
2022-12-19T03:12:38.412Z,0
2022-12-19T03:13:38.896Z,0
2022-12-19T03:14:39.566Z,0
2022-12-19T03:15:40.118Z,0
2022-12-19T03:16:41.746Z,0
2022-12-19T03:17:42.295Z,0
2022-12-19T03:18:42.870Z,0
2022-12-19T03:19:44.096Z,0
2022-12-19T03:20:44.646Z,0
2022-12-19T03:21:45.260Z,0
2022-12-19T03:22:45.853Z,0
2022-12-19T03:23:46.295Z,0
2022-12-19T03:24:46.912Z,0
2022-12-19T03:25:47.412Z,0
2022-12-19T03:26:48.088Z,0
2022-12-19T03:27:48.690Z,0
2022-12-19T03:28:49.798Z,0
2022-12-19T03:29:50.399Z,0
2022-12-19T03:30:51.882Z,0
2022-12-19T03:31:52.388Z,0
2022-12-19T03:32:53.045Z,0
2022-12-19T03:33:53.591Z,0
2022-12-19T03:34:54.219Z,0
2022-12-19T03:35:54.734Z,0
2022-12-19T03:36:55.292Z,0
2022-12-19T03:37:55.930Z,0
2022-12-19T03:38:57.673Z,0
2022-12-19T03:40:28.595Z,0
2022-12-19T03:41:29.102Z,0
2022-12-19T03:42:29.677Z,0
2022-12-19T03:43:30.193Z,0
2022-12-19T03:44:30.911Z,0
2022-12-19T03:45:32.309Z,0
2022-12-19T03:46:32.939Z,0
2022-12-19T03:47:33.449Z,0
2022-12-19T03:48:34.012Z,0
2022-12-19T03:49:35.221Z,0
2022-12-19T03:50:35.811Z,0
2022-12-19T03:51:36.403Z,0
2022-12-19T03:52:36.931Z,0
2022-12-19T03:53:37.537Z,0
2022-12-19T03:54:38.067Z,0
2022-12-19T03:55:38.628Z,0
2022-12-19T03:56:40.321Z,0
2022-12-19T03:57:40.878Z,0
2022-12-19T03:58:41.568Z,0
2022-12-19T03:59:42.528Z,0
2022-12-19T04:00:43.077Z,0
2022-12-19T04:01:43.804Z,0
2022-12-19T04:02:44.365Z,0
2022-12-19T04:03:44.998Z,0
2022-12-19T04:04:45.438Z,0
2022-12-19T04:05:46.064Z,0
2022-12-19T04:06:46.599Z,0
2022-12-19T04:07:47.208Z,0
2022-12-19T04:08:47.823Z,0
2022-12-19T04:09:49.090Z,0
2022-12-19T04:10:49.676Z,0
2022-12-19T04:11:50.217Z,0
2022-12-19T04:12:50.724Z,0
2022-12-19T04:13:51.477Z,0
2022-12-19T04:14:52.048Z,0
2022-12-19T04:15:52.778Z,0
2022-12-19T04:16:53.790Z,0
2022-12-19T04:17:54.295Z,0
2022-12-19T04:18:55.007Z,0
2022-12-19T04:19:56.090Z,0
2022-12-19T04:20:57.470Z,0
2022-12-19T04:22:28.284Z,0
2022-12-19T04:23:28.918Z,0
2022-12-19T04:24:29.453Z,0
2022-12-19T04:25:30.131Z,0
2022-12-19T04:26:30.691Z,0
2022-12-19T04:27:31.309Z,0
2022-12-19T04:28:31.947Z,0
2022-12-19T04:29:33.426Z,0
2022-12-19T04:30:36.705Z,0
2022-12-19T04:31:34.596Z,0
2022-12-19T04:32:35.763Z,0
2022-12-19T04:33:36.274Z,0
2022-12-19T04:34:41.397Z,0
2022-12-19T04:35:37.412Z,0
2022-12-19T04:36:37.960Z,0
2022-12-19T04:37:39.226Z,0
2022-12-19T04:38:39.878Z,0
2022-12-19T04:39:41.314Z,0
2022-12-19T04:40:42.018Z,0
2022-12-19T04:41:42.423Z,0
2022-12-19T04:42:43.165Z,0
2022-12-19T04:43:43.755Z,0
2022-12-19T04:44:44.475Z,0
2022-12-19T04:45:45.013Z,0
2022-12-19T04:46:46.157Z,0
2022-12-19T04:47:46.619Z,0
2022-12-19T04:48:47.245Z,0
2022-12-19T04:49:48.863Z,0
2022-12-19T04:50:49.405Z,0
2022-12-19T04:51:50.028Z,0
2022-12-19T04:52:55.644Z,0
2022-12-19T04:53:51.155Z,0
2022-12-19T04:54:51.849Z,0
2022-12-19T04:55:52.449Z,0
2022-12-19T04:56:53.032Z,0
2022-12-19T04:57:54.557Z,0
2022-12-19T04:58:55.175Z,0
2022-12-19T04:59:56.410Z,0
2022-12-19T05:01:27.836Z,0
2022-12-19T05:02:28.451Z,0
2022-12-19T05:03:28.976Z,0
2022-12-19T05:04:29.407Z,0
2022-12-19T05:05:30.027Z,0
2022-12-19T05:06:30.579Z,0
2022-12-19T05:07:31.130Z,0
2022-12-19T05:08:31.755Z,0
2022-12-19T05:09:32.769Z,0
2022-12-19T05:10:33.303Z,0
2022-12-19T05:11:33.852Z,0
2022-12-19T05:12:34.485Z,0
2022-12-19T05:13:35.069Z,0
2022-12-19T05:14:35.614Z,0
2022-12-19T05:15:36.272Z,0
2022-12-19T05:16:36.684Z,0
2022-12-19T05:17:37.294Z,0
2022-12-19T05:18:37.902Z,0
2022-12-19T05:19:39.298Z,0
2022-12-19T05:20:40.042Z,0
2022-12-19T05:21:40.483Z,0
2022-12-19T05:22:41.056Z,0
2022-12-19T05:23:41.556Z,0
2022-12-19T05:24:43.031Z,0
2022-12-19T05:25:43.715Z,0
2022-12-19T05:26:44.167Z,0
2022-12-19T05:27:44.762Z,0
2022-12-19T05:28:45.284Z,0
2022-12-19T05:29:45.777Z,0
2022-12-19T05:30:51.963Z,0
2022-12-19T05:31:47.602Z,0
2022-12-19T05:32:48.090Z,0
2022-12-19T05:33:48.594Z,0
2022-12-19T05:34:49.146Z,0
2022-12-19T05:35:49.707Z,0
2022-12-19T05:36:50.214Z,0
2022-12-19T05:37:50.823Z,0
2022-12-19T05:38:51.329Z,0
2022-12-19T05:39:51.818Z,0
2022-12-19T05:40:52.424Z,0
2022-12-19T05:41:53.581Z,0
2022-12-19T05:42:54.240Z,0
2022-12-19T05:43:54.747Z,0
2022-12-19T05:44:55.250Z,0
2022-12-19T05:45:56.215Z,0
2022-12-19T05:47:27.916Z,0
2022-12-19T05:48:28.440Z,0
2022-12-19T05:49:29.062Z,0
2022-12-19T05:50:30.535Z,0
2022-12-19T05:51:31.123Z,0
2022-12-19T05:52:31.587Z,0
2022-12-19T05:53:32.078Z,0
2022-12-19T05:54:32.593Z,0
2022-12-19T05:55:33.082Z,0
2022-12-19T05:56:33.734Z,0
2022-12-19T05:57:34.198Z,0
2022-12-19T05:58:34.793Z,0
2022-12-19T05:59:35.348Z,0
2022-12-19T06:00:36.510Z,0
2022-12-19T06:01:37.361Z,0
2022-12-19T06:02:37.795Z,0
2022-12-19T06:03:38.253Z,0
2022-12-19T06:04:38.715Z,0
2022-12-19T06:05:39.219Z,0
2022-12-19T06:06:39.788Z,0
2022-12-19T06:07:40.284Z,0
2022-12-19T06:08:40.832Z,0
2022-12-19T06:09:41.326Z,0
2022-12-19T06:10:42.601Z,0
2022-12-19T06:11:43.259Z,0
2022-12-19T06:12:43.702Z,0
2022-12-19T06:13:44.344Z,0
2022-12-19T06:14:44.802Z,0
2022-12-19T06:15:45.382Z,0
2022-12-19T06:16:46.516Z,0
2022-12-19T06:17:46.991Z,0
2022-12-19T06:18:47.542Z,0
2022-12-19T06:19:48.033Z,0
2022-12-19T06:20:49.599Z,0
2022-12-19T06:21:50.139Z,0
2022-12-19T06:22:50.713Z,0
2022-12-19T06:23:51.250Z,0
2022-12-19T06:24:51.732Z,0
2022-12-19T06:25:52.345Z,0
2022-12-19T06:26:52.874Z,0
2022-12-19T06:27:53.341Z,0
2022-12-19T06:28:53.878Z,0
2022-12-19T06:29:54.466Z,0
2022-12-19T06:31:26.343Z,0
2022-12-19T06:32:26.852Z,0
2022-12-19T06:33:27.597Z,0
2022-12-19T06:35:02.150Z,0
2022-12-19T06:35:28.697Z,0
2022-12-19T06:36:29.202Z,0
2022-12-19T06:37:29.828Z,0
2022-12-19T06:38:30.266Z,0
2022-12-19T06:39:30.862Z,0
2022-12-19T06:40:32.020Z,0
2022-12-19T06:41:33.510Z,0
2022-12-19T06:42:34.138Z,0
2022-12-19T06:43:34.576Z,0
2022-12-19T06:44:35.189Z,0
2022-12-19T06:45:35.739Z,0
2022-12-19T06:46:36.177Z,0
2022-12-19T06:47:36.743Z,0
2022-12-19T06:48:37.775Z,0
2022-12-19T06:49:38.358Z,0
2022-12-19T06:50:39.766Z,0
2022-12-19T06:51:40.247Z,0
2022-12-19T06:52:40.924Z,4
2022-12-19T06:53:41.464Z,0
2022-12-19T06:54:42.111Z,0
2022-12-19T06:55:42.631Z,0
2022-12-19T06:56:43.113Z,0
2022-12-19T06:57:44.305Z,0
2022-12-19T06:58:44.753Z,4
2022-12-19T06:59:45.363Z,4
2022-12-19T07:00:45.915Z,4
2022-12-19T07:01:47.201Z,4
2022-12-19T07:02:47.767Z,4
2022-12-19T07:03:48.107Z,8
2022-12-19T07:04:48.631Z,8
2022-12-19T07:05:49.114Z,8
2022-12-19T07:06:49.760Z,8
2022-12-19T07:07:50.266Z,12
2022-12-19T07:08:50.882Z,12
2022-12-19T07:09:51.393Z,12
2022-12-19T07:10:52.600Z,12
2022-12-19T07:11:53.096Z,12
2022-12-19T07:12:53.669Z,16
2022-12-19T07:13:54.269Z,16
2022-12-19T07:14:55.213Z,16
2022-12-19T07:16:26.114Z,20
2022-12-19T07:17:26.599Z,24
2022-12-19T07:18:27.243Z,24
2022-12-19T07:19:28.519Z,24
2022-12-19T07:20:29.800Z,28
2022-12-19T07:21:30.270Z,32
2022-12-19T07:22:30.831Z,32
2022-12-19T07:23:31.439Z,36
2022-12-19T07:24:31.931Z,40
2022-12-19T07:25:32.508Z,40
2022-12-19T07:26:33.007Z,44
2022-12-19T07:27:35.862Z,48
2022-12-19T07:28:34.517Z,52
2022-12-19T07:29:35.024Z,52
2022-12-19T07:30:36.344Z,56
2022-12-19T07:31:36.968Z,60
2022-12-19T07:32:37.437Z,64
2022-12-19T07:33:38.049Z,68
2022-12-19T07:34:38.586Z,72
2022-12-19T07:35:39.094Z,76
2022-12-19T07:36:39.571Z,80
2022-12-19T07:37:40.101Z,84
2022-12-19T07:38:40.772Z,84
2022-12-19T07:39:41.244Z,92
2022-12-19T07:40:42.373Z,96
2022-12-19T07:41:42.963Z,100
2022-12-19T07:42:43.456Z,104
2022-12-19T07:43:44.097Z,108
2022-12-19T07:44:44.639Z,112
2022-12-19T07:45:45.306Z,116
2022-12-19T07:46:45.665Z,120
2022-12-19T07:47:46.190Z,124
2022-12-19T07:48:46.735Z,132
2022-12-19T07:49:47.218Z,132
2022-12-19T07:50:48.756Z,140
2022-12-19T07:51:49.239Z,144
2022-12-19T07:52:49.816Z,148
2022-12-19T07:53:51.053Z,152
2022-12-19T07:54:51.499Z,160
2022-12-19T07:55:52.060Z,164
2022-12-19T07:56:52.581Z,172
2022-12-19T07:57:53.125Z,176
2022-12-19T07:58:53.719Z,180
2022-12-19T07:59:54.661Z,192
2022-12-19T08:01:28.354Z,196
2022-12-19T08:02:27.089Z,200
2022-12-19T08:03:27.924Z,208
2022-12-19T08:04:28.385Z,208
2022-12-19T08:05:28.902Z,212
2022-12-19T08:06:29.448Z,216
2022-12-19T08:07:29.930Z,224
2022-12-19T08:08:30.508Z,228
2022-12-19T08:09:30.974Z,228
2022-12-19T08:10:31.533Z,236
2022-12-19T08:11:32.015Z,236
2022-12-19T08:12:32.573Z,240
2022-12-19T08:13:38.673Z,240
2022-12-19T08:14:33.715Z,240
2022-12-19T08:15:34.278Z,244
2022-12-19T08:16:49.408Z,244
2022-12-19T08:17:35.478Z,244
2022-12-19T08:18:35.903Z,248
2022-12-19T08:19:36.415Z,248
2022-12-19T08:20:37.025Z,252
2022-12-19T08:21:38.497Z,256
2022-12-19T08:22:39.053Z,264
2022-12-19T08:23:39.584Z,272
2022-12-19T08:24:40.160Z,276
2022-12-19T08:25:40.646Z,288
2022-12-19T08:26:46.032Z,300
2022-12-19T08:27:41.790Z,308
2022-12-19T08:28:43.007Z,316
2022-12-19T08:29:43.529Z,324
2022-12-19T08:30:44.225Z,336
2022-12-19T08:31:45.518Z,344
2022-12-19T08:32:46.112Z,356
2022-12-19T08:33:46.648Z,376
2022-12-19T08:34:47.255Z,392
2022-12-19T08:35:47.743Z,404
2022-12-19T08:36:48.299Z,424
2022-12-19T08:37:49.499Z,436
2022-12-19T08:38:50.025Z,456
2022-12-19T08:39:50.672Z,468
2022-12-19T08:40:51.147Z,476
2022-12-19T08:41:52.610Z,492
2022-12-19T08:42:53.172Z,500
2022-12-19T08:43:54.173Z,524
2022-12-19T08:45:24.979Z,520
2022-12-19T08:46:25.619Z,516
2022-12-19T08:47:26.147Z,540
2022-12-19T08:48:26.724Z,552
2022-12-19T08:49:27.356Z,556
2022-12-19T08:50:27.898Z,564
2022-12-19T08:51:29.189Z,560
2022-12-19T08:52:29.608Z,568
2022-12-19T08:53:30.106Z,580
2022-12-19T08:54:30.619Z,604
2022-12-19T08:55:31.224Z,612
2022-12-19T08:56:32.702Z,612
2022-12-19T08:57:33.263Z,620
2022-12-19T08:58:33.938Z,644
2022-12-19T08:59:34.485Z,652
2022-12-19T09:00:35.052Z,680
2022-12-19T09:01:36.718Z,692
2022-12-19T09:02:37.625Z,688
2022-12-19T09:04:10.008Z,692
2022-12-19T09:05:57.753Z,668
2022-12-19T09:06:01.422Z,632
2022-12-19T09:06:39.742Z,612
2022-12-19T09:07:41.066Z,608
2022-12-19T09:08:41.813Z,608
2022-12-19T09:09:42.377Z,604
2022-12-19T09:10:42.979Z,604
2022-12-19T09:11:47.372Z,608
2022-12-19T09:12:44.612Z,608
2022-12-19T09:13:45.265Z,604
2022-12-19T09:14:45.835Z,604
2022-12-19T09:15:46.445Z,604
2022-12-19T09:16:47.068Z,608
2022-12-19T09:17:47.548Z,612
2022-12-19T09:18:48.972Z,620
2022-12-19T09:19:48.741Z,628
2022-12-19T09:20:49.282Z,636
2022-12-19T09:21:50.532Z,648
2022-12-19T09:22:51.181Z,660
2022-12-19T09:23:51.811Z,676
2022-12-19T09:24:52.471Z,688
2022-12-19T09:25:53.067Z,716
2022-12-19T09:27:24.038Z,728
2022-12-19T09:28:27.606Z,740
2022-12-19T09:29:25.330Z,752
2022-12-19T09:30:26.793Z,764
2022-12-19T09:31:29.403Z,776
2022-12-19T09:32:29.809Z,784
2022-12-19T09:33:30.446Z,788
2022-12-19T09:34:33.479Z,792
2022-12-19T09:35:31.699Z,788
2022-12-19T09:36:32.790Z,784
2022-12-19T09:37:33.234Z,784
2022-12-19T09:38:34.666Z,784
2022-12-19T09:39:34.461Z,784
2022-12-19T09:40:36.316Z,788
2022-12-19T09:41:37.811Z,784
2022-12-19T09:42:41.296Z,780
2022-12-19T09:43:41.456Z,768
2022-12-19T09:44:39.275Z,760
2022-12-19T09:45:40.025Z,752
2022-12-19T09:46:40.669Z,752
2022-12-19T09:47:41.092Z,760
2022-12-19T09:48:41.589Z,764
2022-12-19T09:49:42.205Z,768
2022-12-19T09:50:42.846Z,776
2022-12-19T09:51:44.288Z,792
2022-12-19T09:52:44.862Z,788
2022-12-19T09:53:45.612Z,788
2022-12-19T09:54:46.646Z,784
2022-12-19T09:55:47.275Z,792
2022-12-19T09:56:47.986Z,796
2022-12-19T09:57:49.174Z,788
2022-12-19T09:58:49.707Z,792
2022-12-19T09:59:50.469Z,796
2022-12-19T10:00:55.343Z,816
2022-12-19T10:01:52.309Z,828
2022-12-19T10:02:53.660Z,844
2022-12-19T10:04:24.102Z,852
2022-12-19T10:05:38.823Z,864
2022-12-19T10:07:16.373Z,884
2022-12-19T10:07:49.830Z,900
2022-12-19T10:08:27.720Z,920
2022-12-19T10:12:11.822Z,924
2022-12-19T10:12:35.371Z,940
2022-12-19T10:12:40.177Z,952
2022-12-19T10:12:42.400Z,956
2022-12-19T10:13:31.491Z,960
2022-12-19T10:14:32.147Z,952
2022-12-19T10:15:32.690Z,940
2022-12-19T10:16:33.230Z,932
2022-12-19T10:17:33.790Z,924
2022-12-19T10:18:34.317Z,920
2022-12-19T10:19:36.335Z,916
2022-12-19T10:20:36.848Z,924
2022-12-19T10:22:15.844Z,912
2022-12-19T10:22:38.757Z,900
2022-12-19T10:23:39.434Z,892
2022-12-19T10:24:40.648Z,892
2022-12-19T10:25:41.286Z,900
2022-12-19T10:26:42.503Z,920
2022-12-19T10:27:44.211Z,936
2022-12-19T10:28:43.727Z,936
2022-12-19T10:29:44.357Z,940
2022-12-19T10:30:45.892Z,944
2022-12-19T10:31:46.327Z,912
2022-12-19T10:32:47.815Z,892
2022-12-19T10:33:48.372Z,876
2022-12-19T10:34:48.846Z,872
2022-12-19T10:35:49.529Z,856
2022-12-19T10:37:52.148Z,848
2022-12-19T10:39:23.323Z,852
2022-12-19T10:40:28.356Z,868
2022-12-19T10:41:24.428Z,876
2022-12-19T10:42:25.497Z,884
2022-12-19T10:43:33.577Z,896
2022-12-19T10:44:26.697Z,928
2022-12-19T10:45:27.283Z,960
2022-12-19T10:46:28.014Z,968
2022-12-19T10:47:28.531Z,972
2022-12-19T10:48:30.841Z,952
2022-12-19T10:49:29.480Z,924
2022-12-19T10:50:30.708Z,912
2022-12-19T10:51:31.415Z,908
2022-12-19T10:52:32.608Z,892
2022-12-19T10:53:33.096Z,852
2022-12-19T10:54:33.879Z,824
2022-12-19T10:55:34.314Z,804
2022-12-19T10:56:37.977Z,768
2022-12-19T10:57:36.381Z,720
2022-12-19T10:58:36.996Z,744
2022-12-19T10:59:37.518Z,720
2022-12-19T11:00:38.114Z,720
2022-12-19T11:01:39.378Z,748
2022-12-19T11:02:41.424Z,760
2022-12-19T11:03:42.018Z,808
2022-12-19T11:04:42.326Z,816
2022-12-19T11:05:42.934Z,824
2022-12-19T11:06:43.449Z,828
2022-12-19T11:07:44.156Z,852
2022-12-19T11:08:44.677Z,876
2022-12-19T11:09:49.908Z,888
2022-12-19T11:12:44.969Z,888
2022-12-19T11:15:27.116Z,896
2022-12-19T11:16:43.138Z,876
2022-12-19T11:19:13.300Z,908
2022-12-19T11:19:41.525Z,956
2022-12-19T11:21:54.172Z,1084
2022-12-19T11:23:45.704Z,1120
2022-12-19T11:29:16.903Z,1128
2022-12-19T11:29:17.226Z,1140
2022-12-19T11:29:32.002Z,1012
2022-12-19T11:29:35.182Z,1084
2022-12-19T11:29:36.579Z,1048
2022-12-19T11:29:55.169Z,1004
2022-12-19T11:30:09.324Z,1012
2022-12-19T11:30:09.516Z,932
2022-12-19T11:30:34.297Z,984
2022-12-19T11:30:35.458Z,956
2022-12-19T11:30:47.446Z,904
2022-12-19T11:31:52.948Z,984
2022-12-19T11:32:32.182Z,1000
2022-12-19T11:32:40.368Z,980
2022-12-19T11:33:34.558Z,968
2022-12-19T11:34:35.221Z,976
2022-12-19T11:35:37.029Z,984
2022-12-19T11:36:36.372Z,1032
2022-12-19T11:37:36.861Z,1028
2022-12-19T11:38:37.406Z,1020
2022-12-19T11:39:38.062Z,1068
2022-12-19T11:40:41.761Z,1104
2022-12-19T11:41:39.177Z,1088
2022-12-19T11:42:41.249Z,1080
2022-12-19T11:43:44.563Z,1092
2022-12-19T11:44:42.627Z,1068
2022-12-19T11:45:43.184Z,1024
2022-12-19T11:46:43.752Z,984
2022-12-19T11:47:44.243Z,996
2022-12-19T11:48:44.796Z,1016
2022-12-19T11:49:45.469Z,1040
2022-12-19T11:50:45.979Z,1092
2022-12-19T11:51:46.641Z,1072
2022-12-19T11:53:05.159Z,1080
2022-12-19T11:53:48.529Z,1104
2022-12-19T11:54:49.154Z,1140
2022-12-19T11:55:50.503Z,1156
2022-12-19T11:57:22.461Z,1168
2022-12-19T11:58:22.957Z,1196
2022-12-19T11:59:23.488Z,1192
2022-12-19T12:00:23.989Z,1212
2022-12-19T12:01:25.372Z,1264
2022-12-19T12:02:26.764Z,1272
2022-12-19T12:03:27.381Z,1252
2022-12-19T12:04:28.016Z,1244
2022-12-19T12:05:28.578Z,1332
2022-12-19T12:06:31.599Z,1344
2022-12-19T12:08:20.015Z,1356
2022-12-19T12:10:31.127Z,1392
2022-12-19T12:14:33.033Z,1376
2022-12-19T12:14:42.260Z,1340
2022-12-19T12:16:00.146Z,1376
2022-12-19T12:21:00.198Z,1568
2022-12-19T12:22:32.978Z,1472
2022-12-19T12:24:05.114Z,1524
2022-12-19T12:29:39.843Z,1600
2022-12-19T12:30:36.163Z,1572
2022-12-19T12:30:46.307Z,1552
2022-12-19T12:31:00.295Z,1276
2022-12-19T12:31:05.423Z,1508
2022-12-19T12:31:09.001Z,1348
2022-12-19T12:31:15.312Z,1440
2022-12-19T12:31:17.721Z,1504
2022-12-19T12:31:23.615Z,1552
2022-12-19T12:31:45.374Z,1356
2022-12-19T12:31:45.499Z,1300
2022-12-19T12:31:46.047Z,1264
2022-12-19T12:31:49.442Z,1268
2022-12-19T12:31:58.265Z,1328
2022-12-19T12:31:58.472Z,1420
2022-12-19T12:32:05.781Z,1544
2022-12-19T12:35:13.681Z,1496
2022-12-19T12:35:35.103Z,1492
2022-12-19T12:35:56.810Z,1372
2022-12-19T12:36:00.034Z,1484
2022-12-19T12:37:55.773Z,1408
2022-12-19T12:38:26.352Z,1292
2022-12-19T12:39:29.784Z,1272
2022-12-19T12:40:25.163Z,1268
2022-12-19T12:41:25.714Z,1292
2022-12-19T12:42:26.749Z,1304
2022-12-19T12:43:29.199Z,1160
2022-12-19T12:44:33.070Z,1196
2022-12-19T12:45:31.288Z,1184
2022-12-19T12:46:31.789Z,1088
2022-12-19T12:47:32.283Z,1152
2022-12-19T12:48:32.774Z,1168
2022-12-19T12:49:33.592Z,1156
2022-12-19T12:50:34.162Z,1196
2022-12-19T12:51:34.771Z,1252
2022-12-19T12:52:36.038Z,1352
2022-12-19T12:53:37.488Z,1372
2022-12-19T12:54:38.242Z,1532
2022-12-19T12:55:38.789Z,1536
2022-12-19T12:56:39.408Z,1616
2022-12-19T12:57:39.823Z,1728
2022-12-19T12:58:40.367Z,1736
2022-12-19T12:59:41.794Z,1784
2022-12-19T13:00:42.352Z,1816
2022-12-19T13:01:43.171Z,1748
2022-12-19T13:02:44.367Z,1688
2022-12-19T13:03:44.735Z,1864
2022-12-19T13:04:49.359Z,2052
2022-12-19T13:05:46.067Z,2036
2022-12-19T13:06:46.695Z,1780
2022-12-19T13:07:48.060Z,1708
2022-12-19T13:08:48.595Z,2116
2022-12-19T13:09:49.095Z,2136
2022-12-19T13:10:49.667Z,1944
2022-12-19T13:11:50.254Z,1648
2022-12-19T13:12:52.276Z,2300
2022-12-19T13:14:23.053Z,2224
2022-12-19T13:15:23.581Z,2380
2022-12-19T13:16:24.196Z,2352
2022-12-19T13:17:24.879Z,1816
2022-12-19T13:18:25.431Z,2224
2022-12-19T13:19:28.513Z,2524
2022-12-19T13:20:27.819Z,2528
2022-12-19T13:21:27.083Z,2624
2022-12-19T13:22:27.991Z,2488
2022-12-19T13:23:29.127Z,2508
2022-12-19T13:24:29.698Z,2452
2022-12-19T13:25:30.329Z,2516
2022-12-19T13:26:30.899Z,2452
2022-12-19T13:27:31.690Z,2448
2022-12-19T13:28:32.117Z,2504
2022-12-19T13:29:32.739Z,2668
2022-12-19T13:30:36.493Z,2732
2022-12-19T13:31:34.595Z,2612
2022-12-19T13:32:35.269Z,2588
2022-12-19T13:33:36.700Z,2548
2022-12-19T13:34:37.289Z,2732
2022-12-19T13:36:36.931Z,2768
2022-12-19T13:39:51.442Z,2764
2022-12-19T13:39:57.350Z,2832
2022-12-19T13:39:59.203Z,2500
2022-12-19T13:40:00.874Z,2840
2022-12-19T13:40:41.482Z,2792
2022-12-19T13:41:41.958Z,2512
2022-12-19T13:42:42.561Z,2372
2022-12-19T13:43:44.109Z,1916
2022-12-19T13:44:44.858Z,1756
2022-12-19T13:45:45.507Z,1588
2022-12-19T13:46:46.016Z,1284
2022-12-19T13:47:46.559Z,1208
2022-12-19T13:48:47.177Z,1080
2022-12-19T13:49:47.755Z,992
2022-12-19T13:50:49.619Z,920
2022-12-19T13:51:48.833Z,904
2022-12-19T13:52:49.419Z,912
2022-12-19T13:53:55.919Z,972
2022-12-19T13:55:22.108Z,972
2022-12-19T13:56:22.878Z,976
2022-12-19T13:57:23.561Z,980
2022-12-19T13:58:29.170Z,984
2022-12-19T13:59:24.823Z,980
2022-12-19T14:00:25.428Z,980
2022-12-19T14:01:27.026Z,964
2022-12-19T14:02:28.190Z,940
2022-12-19T14:03:29.396Z,932
2022-12-19T14:04:29.742Z,924
2022-12-19T14:06:14.526Z,916
2022-12-19T14:06:31.088Z,896
2022-12-19T14:07:35.916Z,888
2022-12-19T14:08:33.193Z,880
2022-12-19T14:11:28.291Z,884
2022-12-19T14:11:34.553Z,888
2022-12-19T14:12:20.104Z,880
2022-12-19T14:13:49.152Z,864
2022-12-19T14:13:58.818Z,872
2022-12-19T14:14:37.941Z,844
2022-12-19T14:15:38.562Z,832
2022-12-19T14:16:44.639Z,824
2022-12-19T14:17:39.956Z,816
2022-12-19T14:18:43.783Z,816
2022-12-19T14:19:41.430Z,812
2022-12-19T14:22:05.678Z,832
2022-12-19T14:22:07.140Z,820
2022-12-19T14:22:43.735Z,848
2022-12-19T14:23:45.174Z,848
2022-12-19T14:24:46.029Z,844
2022-12-19T14:28:16.787Z,892
2022-12-19T14:28:17.609Z,880
2022-12-19T14:28:19.205Z,852
2022-12-19T14:28:54.552Z,884
2022-12-19T14:30:27.323Z,860
2022-12-19T14:31:21.609Z,832
2022-12-19T14:33:43.422Z,804
2022-12-19T14:33:46.944Z,812
2022-12-19T14:35:29.601Z,804
2022-12-19T14:36:08.398Z,800
2022-12-19T14:36:27.085Z,796